Leland, IL (60531)

4:27 AM CDT on July 28, 2016 (GMT -0500)
Farm 34 | | Change Station

Elev 699 ft 41.59 °N, 88.85 °W | Updated 1 minute ago

Clear
Clear
70.2 °F
Feels Like 70.2 °F
N
2.0
Wind Variable Wind from NE
Gusts 3.0 mph

Today
High -- | Low -- °F
--% Chance of Precip.
Yesterday
High -- | Low -- °F
Precip. -- in
Pressure 29.89 in
Visibility 6.0 miles
Clouds Clear
Dew Point 68 °F
Humidity 93%
Rainfall 0.00 in
Snow Depth Not available.
5:46 AM 8:16 PM
Waning Crescent, 34% visible
METAR KARR 280852Z AUTO 00000KT 6SM BR CLR 21/19 A2990 RMK AO2 SLP120 T02060194 56013
Pressure 29.89 in
Visibility 6.0 miles
Clouds Clear
Dew Point 68 °F
Humidity 93%
Rainfall 0.00 in
Snow Depth Not available.
5:46 AM 8:16 PM
Waning Crescent, 34% visible
METAR KARR 280852Z AUTO 00000KT 6SM BR CLR 21/19 A2990 RMK AO2 SLP120 T02060194 56013

10-Day Weather Forecast

Almanac

Astronomy

Jul. 28, 2016 Rise Set
Actual Time
Civil Twilight
Nautical Twilight
Astronomical Twilight
Moon
Length of Visible Light
Length of Day
Tomorrow will be .
, % of the Moon is Illuminated

Today's Extremes

State Highs State Lows

Community

WunderPhotos

Upload Photos

1,928,070 photos uploaded!

WunderBlog® & News

Nearby

Air Quality

  Air Quality AQ Index Pollutant
Not available.

Snow Depth

Station Depth Elevation

Earthquake Activity

City Distance Mag. Time & Date
Minimum magnitude displayed is 2.5.

Coastal Water Temperatures

Place Temperature

Stations

Nearby Weather Stations

Station Location Temp. Windchill Dew Point Humidity Wind Precip. Elev Updated Type
                   

Watches & Warnings

There are currently no watches in effect.